sensor_id;sensor_type;location;lat;lon;timestamp;P1;durP1;ratioP1;P2;durP2;ratioP2
25758;SDS011;13604;52.496;13.456;2022-11-20T00:01:12;54.08;;;20.58;;
25758;SDS011;13604;52.496;13.456;2022-11-20T00:03:39;47.33;;;19.85;;
25758;SDS011;13604;52.496;13.456;2022-11-20T00:06:07;46.60;;;20.48;;
25758;SDS011;13604;52.496;13.456;2022-11-20T00:08:34;52.80;;;20.75;;
25758;SDS011;13604;52.496;13.456;2022-11-20T00:11:06;47.25;;;21.77;;
25758;SDS011;13604;52.496;13.456;2022-11-20T00:13:33;42.45;;;18.88;;
25758;SDS011;13604;52.496;13.456;2022-11-20T00:15:59;44.88;;;18.75;;
25758;SDS011;13604;52.496;13.456;2022-11-20T00:18:25;44.85;;;19.13;;
25758;SDS011;13604;52.496;13.456;2022-11-20T00:20:52;47.80;;;20.60;;
25758;SDS011;13604;52.496;13.456;2022-11-20T00:23:17;48.58;;;20.42;;
25758;SDS011;13604;52.496;13.456;2022-11-20T00:25:42;48.20;;;19.75;;
25758;SDS011;13604;52.496;13.456;2022-11-20T00:28:07;47.40;;;19.25;;
25758;SDS011;13604;52.496;13.456;2022-11-20T00:30:33;50.70;;;19.48;;
25758;SDS011;13604;52.496;13.456;2022-11-20T00:32:58;42.15;;;18.67;;
25758;SDS011;13604;52.496;13.456;2022-11-20T00:35:23;46.20;;;19.77;;
25758;SDS011;13604;52.496;13.456;2022-11-20T00:37:49;46.45;;;20.27;;
25758;SDS011;13604;52.496;13.456;2022-11-20T00:40:14;46.25;;;20.77;;
25758;SDS011;13604;52.496;13.456;2022-11-20T00:42:39;41.17;;;18.13;;
25758;SDS011;13604;52.496;13.456;2022-11-20T00:45:05;44.63;;;20.10;;
25758;SDS011;13604;52.496;13.456;2022-11-20T00:47:30;49.42;;;19.80;;
25758;SDS011;13604;52.496;13.456;2022-11-20T00:49:56;43.95;;;19.80;;
25758;SDS011;13604;52.496;13.456;2022-11-20T00:52:21;41.22;;;18.40;;
25758;SDS011;13604;52.496;13.456;2022-11-20T00:54:46;42.78;;;18.73;;
25758;SDS011;13604;52.496;13.456;2022-11-20T00:57:11;44.22;;;17.95;;
25758;SDS011;13604;52.496;13.456;2022-11-20T00:59:37;45.63;;;20.33;;
25758;SDS011;13604;52.496;13.456;2022-11-20T01:02:02;39.75;;;18.92;;
25758;SDS011;13604;52.496;13.456;2022-11-20T01:04:27;38.75;;;17.65;;
25758;SDS011;13604;52.496;13.456;2022-11-20T01:06:53;40.33;;;18.35;;
25758;SDS011;13604;52.496;13.456;2022-11-20T01:09:18;39.17;;;18.08;;
25758;SDS011;13604;52.496;13.456;2022-11-20T01:11:44;37.75;;;18.35;;
25758;SDS011;13604;52.496;13.456;2022-11-20T01:14:12;44.08;;;18.88;;
25758;SDS011;13604;52.496;13.456;2022-11-20T01:16:50;43.53;;;19.40;;
25758;SDS011;13604;52.496;13.456;2022-11-20T01:19:20;48.20;;;20.27;;
25758;SDS011;13604;52.496;13.456;2022-11-20T01:21:48;42.75;;;18.88;;
25758;SDS011;13604;52.496;13.456;2022-11-20T01:24:16;43.22;;;19.60;;
25758;SDS011;13604;52.496;13.456;2022-11-20T01:26:43;41.97;;;18.67;;
25758;SDS011;13604;52.496;13.456;2022-11-20T01:29:13;41.53;;;19.20;;
25758;SDS011;13604;52.496;13.456;2022-11-20T01:31:40;43.78;;;20.33;;
25758;SDS011;13604;52.496;13.456;2022-11-20T01:34:07;41.33;;;19.98;;
25758;SDS011;13604;52.496;13.456;2022-11-20T01:36:35;48.30;;;20.27;;
25758;SDS011;13604;52.496;13.456;2022-11-20T01:39:07;41.25;;;17.75;;
25758;SDS011;13604;52.496;13.456;2022-11-20T01:41:35;36.60;;;17.70;;
25758;SDS011;13604;52.496;13.456;2022-11-20T01:44:21;48.40;;;19.10;;
25758;SDS011;13604;52.496;13.456;2022-11-20T01:47:07;43.38;;;18.50;;
25758;SDS011;13604;52.496;13.456;2022-11-20T01:49:36;47.28;;;18.67;;
25758;SDS011;13604;52.496;13.456;2022-11-20T01:52:05;41.72;;;18.77;;
25758;SDS011;13604;52.496;13.456;2022-11-20T01:54:38;42.60;;;19.35;;
25758;SDS011;13604;52.496;13.456;2022-11-20T01:57:07;40.85;;;18.27;;
25758;SDS011;13604;52.496;13.456;2022-11-20T01:59:36;41.92;;;18.40;;
25758;SDS011;13604;52.496;13.456;2022-11-20T02:02:06;42.72;;;18.48;;
25758;SDS011;13604;52.496;13.456;2022-11-20T02:04:31;44.42;;;18.95;;
25758;SDS011;13604;52.496;13.456;2022-11-20T02:06:59;37.97;;;17.65;;
25758;SDS011;13604;52.496;13.456;2022-11-20T02:09:25;37.58;;;18.70;;
25758;SDS011;13604;52.496;13.456;2022-11-20T02:11:52;39.35;;;18.15;;
25758;SDS011;13604;52.496;13.456;2022-11-20T02:14:18;37.38;;;17.60;;
25758;SDS011;13604;52.496;13.456;2022-11-20T02:16:45;42.15;;;18.00;;
25758;SDS011;13604;52.496;13.456;2022-11-20T02:19:16;35.50;;;16.83;;
25758;SDS011;13604;52.496;13.456;2022-11-20T02:21:54;35.25;;;17.45;;
25758;SDS011;13604;52.496;13.456;2022-11-20T02:24:26;34.97;;;16.40;;
25758;SDS011;13604;52.496;13.456;2022-11-20T02:32:33;39.90;;;16.40;;
25758;SDS011;13604;52.496;13.456;2022-11-20T02:35:10;36.63;;;17.40;;
25758;SDS011;13604;52.496;13.456;2022-11-20T02:37:53;32.92;;;16.48;;
25758;SDS011;13604;52.496;13.456;2022-11-20T02:40:19;34.95;;;17.55;;
25758;SDS011;13604;52.496;13.456;2022-11-20T02:42:45;30.90;;;14.95;;
25758;SDS011;13604;52.496;13.456;2022-11-20T02:45:10;32.70;;;15.90;;
25758;SDS011;13604;52.496;13.456;2022-11-20T02:47:36;33.85;;;16.40;;
25758;SDS011;13604;52.496;13.456;2022-11-20T02:50:01;35.30;;;16.00;;
25758;SDS011;13604;52.496;13.456;2022-11-20T02:52:27;36.42;;;17.35;;
25758;SDS011;13604;52.496;13.456;2022-11-20T02:54:53;31.23;;;16.08;;
25758;SDS011;13604;52.496;13.456;2022-11-20T02:57:18;34.03;;;16.48;;
25758;SDS011;13604;52.496;13.456;2022-11-20T02:59:43;30.17;;;15.63;;
25758;SDS011;13604;52.496;13.456;2022-11-20T03:02:09;34.80;;;16.42;;
25758;SDS011;13604;52.496;13.456;2022-11-20T03:04:34;33.08;;;16.25;;
25758;SDS011;13604;52.496;13.456;2022-11-20T03:06:59;33.35;;;14.93;;
25758;SDS011;13604;52.496;13.456;2022-11-20T03:09:25;28.30;;;14.57;;
25758;SDS011;13604;52.496;13.456;2022-11-20T03:11:50;36.72;;;17.33;;
25758;SDS011;13604;52.496;13.456;2022-11-20T03:14:16;39.97;;;16.42;;
25758;SDS011;13604;52.496;13.456;2022-11-20T03:16:41;30.92;;;16.02;;
25758;SDS011;13604;52.496;13.456;2022-11-20T03:19:06;31.38;;;15.80;;
25758;SDS011;13604;52.496;13.456;2022-11-20T03:21:35;35.50;;;17.05;;
25758;SDS011;13604;52.496;13.456;2022-11-20T03:24:01;32.25;;;16.35;;
25758;SDS011;13604;52.496;13.456;2022-11-20T03:26:27;32.92;;;16.02;;
25758;SDS011;13604;52.496;13.456;2022-11-20T03:28:54;33.25;;;16.25;;
25758;SDS011;13604;52.496;13.456;2022-11-20T03:31:22;32.38;;;16.48;;
25758;SDS011;13604;52.496;13.456;2022-11-20T03:33:49;31.90;;;16.05;;
25758;SDS011;13604;52.496;13.456;2022-11-20T03:36:15;35.78;;;17.13;;
25758;SDS011;13604;52.496;13.456;2022-11-20T03:38:42;35.28;;;16.50;;
25758;SDS011;13604;52.496;13.456;2022-11-20T03:41:09;37.45;;;17.15;;
25758;SDS011;13604;52.496;13.456;2022-11-20T03:43:39;33.63;;;15.98;;
25758;SDS011;13604;52.496;13.456;2022-11-20T03:46:05;35.25;;;17.38;;
25758;SDS011;13604;52.496;13.456;2022-11-20T03:48:31;31.85;;;15.93;;
25758;SDS011;13604;52.496;13.456;2022-11-20T03:51:09;36.38;;;16.75;;
25758;SDS011;13604;52.496;13.456;2022-11-20T03:53:39;32.22;;;16.15;;
25758;SDS011;13604;52.496;13.456;2022-11-20T03:56:06;42.67;;;17.60;;
25758;SDS011;13604;52.496;13.456;2022-11-20T03:58:33;37.15;;;18.27;;
25758;SDS011;13604;52.496;13.456;2022-11-20T04:01:05;36.92;;;16.63;;
25758;SDS011;13604;52.496;13.456;2022-11-20T04:03:31;33.70;;;16.52;;
25758;SDS011;13604;52.496;13.456;2022-11-20T04:06:01;34.17;;;17.02;;
25758;SDS011;13604;52.496;13.456;2022-11-20T04:08:40;41.63;;;16.65;;
25758;SDS011;13604;52.496;13.456;2022-11-20T04:11:09;35.20;;;17.83;;
25758;SDS011;13604;52.496;13.456;2022-11-20T04:13:36;40.33;;;16.67;;
25758;SDS011;13604;52.496;13.456;2022-11-20T04:16:01;36.00;;;17.33;;
25758;SDS011;13604;52.496;13.456;2022-11-20T04:18:27;35.05;;;17.20;;
25758;SDS011;13604;52.496;13.456;2022-11-20T04:20:52;33.47;;;16.38;;
25758;SDS011;13604;52.496;13.456;2022-11-20T04:23:17;32.55;;;16.80;;
25758;SDS011;13604;52.496;13.456;2022-11-20T04:25:42;32.75;;;16.33;;
25758;SDS011;13604;52.496;13.456;2022-11-20T04:28:08;36.53;;;16.90;;
25758;SDS011;13604;52.496;13.456;2022-11-20T04:30:34;29.33;;;15.93;;
25758;SDS011;13604;52.496;13.456;2022-11-20T04:32:59;36.78;;;17.20;;
25758;SDS011;13604;52.496;13.456;2022-11-20T04:35:25;34.17;;;16.00;;
25758;SDS011;13604;52.496;13.456;2022-11-20T04:37:51;35.60;;;18.27;;
25758;SDS011;13604;52.496;13.456;2022-11-20T04:40:17;33.28;;;16.80;;
25758;SDS011;13604;52.496;13.456;2022-11-20T04:42:42;32.17;;;16.77;;
25758;SDS011;13604;52.496;13.456;2022-11-20T04:45:08;39.75;;;18.15;;
25758;SDS011;13604;52.496;13.456;2022-11-20T04:47:33;40.05;;;17.52;;
25758;SDS011;13604;52.496;13.456;2022-11-20T04:49:58;35.65;;;17.25;;
25758;SDS011;13604;52.496;13.456;2022-11-20T04:52:24;33.63;;;17.38;;
25758;SDS011;13604;52.496;13.456;2022-11-20T04:54:49;37.42;;;17.05;;
25758;SDS011;13604;52.496;13.456;2022-11-20T04:57:17;34.50;;;17.05;;
25758;SDS011;13604;52.496;13.456;2022-11-20T04:59:42;34.80;;;17.08;;
25758;SDS011;13604;52.496;13.456;2022-11-20T05:02:08;37.60;;;18.33;;
25758;SDS011;13604;52.496;13.456;2022-11-20T05:04:33;38.38;;;18.10;;
25758;SDS011;13604;52.496;13.456;2022-11-20T05:06:58;35.50;;;17.15;;
25758;SDS011;13604;52.496;13.456;2022-11-20T05:09:24;36.33;;;18.05;;
25758;SDS011;13604;52.496;13.456;2022-11-20T05:11:49;37.78;;;17.85;;
25758;SDS011;13604;52.496;13.456;2022-11-20T05:14:14;37.42;;;17.67;;
25758;SDS011;13604;52.496;13.456;2022-11-20T05:16:40;37.22;;;18.30;;
25758;SDS011;13604;52.496;13.456;2022-11-20T05:19:05;38.88;;;17.45;;
25758;SDS011;13604;52.496;13.456;2022-11-20T05:21:30;37.78;;;16.77;;
25758;SDS011;13604;52.496;13.456;2022-11-20T05:23:57;35.05;;;17.42;;
25758;SDS011;13604;52.496;13.456;2022-11-20T05:26:22;36.05;;;16.30;;
25758;SDS011;13604;52.496;13.456;2022-11-20T05:28:48;33.15;;;16.88;;
25758;SDS011;13604;52.496;13.456;2022-11-20T05:31:15;40.20;;;18.60;;
25758;SDS011;13604;52.496;13.456;2022-11-20T05:33:43;34.65;;;17.48;;
25758;SDS011;13604;52.496;13.456;2022-11-20T05:36:09;41.42;;;17.92;;
25758;SDS011;13604;52.496;13.456;2022-11-20T05:38:36;38.92;;;17.38;;
25758;SDS011;13604;52.496;13.456;2022-11-20T05:41:12;38.97;;;17.55;;
25758;SDS011;13604;52.496;13.456;2022-11-20T05:43:40;39.22;;;18.80;;
25758;SDS011;13604;52.496;13.456;2022-11-20T05:46:08;36.95;;;18.35;;
25758;SDS011;13604;52.496;13.456;2022-11-20T05:48:35;32.47;;;16.42;;
25758;SDS011;13604;52.496;13.456;2022-11-20T05:51:01;32.38;;;17.40;;
25758;SDS011;13604;52.496;13.456;2022-11-20T05:53:28;37.30;;;17.75;;
25758;SDS011;13604;52.496;13.456;2022-11-20T05:55:57;44.05;;;18.67;;
25758;SDS011;13604;52.496;13.456;2022-11-20T05:58:24;40.90;;;17.95;;
25758;SDS011;13604;52.496;13.456;2022-11-20T06:00:49;37.25;;;17.50;;
25758;SDS011;13604;52.496;13.456;2022-11-20T06:03:15;43.03;;;17.88;;
25758;SDS011;13604;52.496;13.456;2022-11-20T06:05:40;39.80;;;19.27;;
25758;SDS011;13604;52.496;13.456;2022-11-20T06:08:05;31.67;;;16.52;;
25758;SDS011;13604;52.496;13.456;2022-11-20T06:10:30;40.45;;;18.85;;
25758;SDS011;13604;52.496;13.456;2022-11-20T06:13:02;34.15;;;17.27;;
25758;SDS011;13604;52.496;13.456;2022-11-20T06:15:51;38.63;;;17.92;;
25758;SDS011;13604;52.496;13.456;2022-11-20T06:18:17;33.53;;;16.73;;
25758;SDS011;13604;52.496;13.456;2022-11-20T06:20:43;41.42;;;19.45;;
25758;SDS011;13604;52.496;13.456;2022-11-20T06:23:08;37.78;;;18.77;;
25758;SDS011;13604;52.496;13.456;2022-11-20T06:25:36;39.60;;;18.52;;
25758;SDS011;13604;52.496;13.456;2022-11-20T06:28:03;38.85;;;17.83;;
25758;SDS011;13604;52.496;13.456;2022-11-20T06:30:28;37.25;;;17.55;;
25758;SDS011;13604;52.496;13.456;2022-11-20T06:32:54;39.63;;;18.77;;
25758;SDS011;13604;52.496;13.456;2022-11-20T06:35:19;34.97;;;18.50;;
25758;SDS011;13604;52.496;13.456;2022-11-20T06:37:44;34.25;;;16.95;;
25758;SDS011;13604;52.496;13.456;2022-11-20T06:40:10;38.58;;;18.45;;
25758;SDS011;13604;52.496;13.456;2022-11-20T06:42:35;40.65;;;17.88;;
25758;SDS011;13604;52.496;13.456;2022-11-20T06:45:00;33.80;;;18.50;;
25758;SDS011;13604;52.496;13.456;2022-11-20T06:47:26;39.83;;;18.65;;
25758;SDS011;13604;52.496;13.456;2022-11-20T06:49:51;41.38;;;18.00;;
25758;SDS011;13604;52.496;13.456;2022-11-20T06:52:16;39.17;;;18.23;;
25758;SDS011;13604;52.496;13.456;2022-11-20T06:54:42;36.00;;;18.20;;
25758;SDS011;13604;52.496;13.456;2022-11-20T06:57:07;43.70;;;17.45;;
25758;SDS011;13604;52.496;13.456;2022-11-20T06:59:32;37.13;;;16.95;;
25758;SDS011;13604;52.496;13.456;2022-11-20T07:01:57;36.70;;;18.27;;
25758;SDS011;13604;52.496;13.456;2022-11-20T07:04:23;39.78;;;17.55;;
25758;SDS011;13604;52.496;13.456;2022-11-20T07:06:48;36.97;;;19.25;;
25758;SDS011;13604;52.496;13.456;2022-11-20T07:09:14;39.42;;;18.42;;
25758;SDS011;13604;52.496;13.456;2022-11-20T07:11:39;38.15;;;17.73;;
25758;SDS011;13604;52.496;13.456;2022-11-20T07:14:04;36.40;;;17.27;;
25758;SDS011;13604;52.496;13.456;2022-11-20T07:16:30;37.33;;;18.10;;
25758;SDS011;13604;52.496;13.456;2022-11-20T07:18:55;33.90;;;17.60;;
25758;SDS011;13604;52.496;13.456;2022-11-20T07:21:20;39.25;;;17.60;;
25758;SDS011;13604;52.496;13.456;2022-11-20T07:23:46;36.15;;;17.08;;
25758;SDS011;13604;52.496;13.456;2022-11-20T07:26:11;38.22;;;18.77;;
25758;SDS011;13604;52.496;13.456;2022-11-20T07:28:36;32.08;;;16.88;;
25758;SDS011;13604;52.496;13.456;2022-11-20T07:31:02;36.72;;;16.58;;
25758;SDS011;13604;52.496;13.456;2022-11-20T07:33:29;32.83;;;16.73;;
25758;SDS011;13604;52.496;13.456;2022-11-20T07:35:55;42.53;;;18.75;;
25758;SDS011;13604;52.496;13.456;2022-11-20T07:38:20;39.22;;;17.83;;
25758;SDS011;13604;52.496;13.456;2022-11-20T07:40:46;37.97;;;17.67;;
25758;SDS011;13604;52.496;13.456;2022-11-20T07:43:11;39.50;;;18.13;;
25758;SDS011;13604;52.496;13.456;2022-11-20T07:45:36;38.88;;;18.20;;
25758;SDS011;13604;52.496;13.456;2022-11-20T07:48:01;36.85;;;16.95;;
25758;SDS011;13604;52.496;13.456;2022-11-20T07:50:27;38.95;;;17.27;;
25758;SDS011;13604;52.496;13.456;2022-11-20T07:52:52;32.80;;;16.65;;
25758;SDS011;13604;52.496;13.456;2022-11-20T07:55:25;35.13;;;17.70;;
25758;SDS011;13604;52.496;13.456;2022-11-20T07:57:54;37.33;;;17.10;;
25758;SDS011;13604;52.496;13.456;2022-11-20T08:00:20;36.22;;;16.92;;
25758;SDS011;13604;52.496;13.456;2022-11-20T08:02:45;32.42;;;16.23;;
25758;SDS011;13604;52.496;13.456;2022-11-20T08:05:11;38.08;;;16.58;;
25758;SDS011;13604;52.496;13.456;2022-11-20T08:07:37;39.97;;;17.00;;
25758;SDS011;13604;52.496;13.456;2022-11-20T08:10:03;33.33;;;17.30;;
25758;SDS011;13604;52.496;13.456;2022-11-20T08:12:28;34.30;;;17.42;;
25758;SDS011;13604;52.496;13.456;2022-11-20T08:15:12;36.50;;;17.20;;
25758;SDS011;13604;52.496;13.456;2022-11-20T08:17:37;38.08;;;17.98;;
25758;SDS011;13604;52.496;13.456;2022-11-20T08:20:02;33.85;;;17.42;;
25758;SDS011;13604;52.496;13.456;2022-11-20T08:22:28;43.13;;;17.73;;
25758;SDS011;13604;52.496;13.456;2022-11-20T08:24:53;37.60;;;17.83;;
25758;SDS011;13604;52.496;13.456;2022-11-20T08:27:19;36.75;;;17.33;;
25758;SDS011;13604;52.496;13.456;2022-11-20T08:29:44;37.55;;;18.05;;
25758;SDS011;13604;52.496;13.456;2022-11-20T08:32:09;36.17;;;17.50;;
25758;SDS011;13604;52.496;13.456;2022-11-20T08:34:34;34.92;;;17.38;;
25758;SDS011;13604;52.496;13.456;2022-11-20T08:37:01;37.95;;;17.75;;
25758;SDS011;13604;52.496;13.456;2022-11-20T08:39:27;37.40;;;18.23;;
25758;SDS011;13604;52.496;13.456;2022-11-20T08:41:52;36.28;;;16.83;;
25758;SDS011;13604;52.496;13.456;2022-11-20T08:44:17;36.50;;;17.20;;
25758;SDS011;13604;52.496;13.456;2022-11-20T08:46:42;38.55;;;17.33;;
25758;SDS011;13604;52.496;13.456;2022-11-20T08:49:09;33.47;;;16.85;;
25758;SDS011;13604;52.496;13.456;2022-11-20T08:51:36;36.92;;;17.88;;
25758;SDS011;13604;52.496;13.456;2022-11-20T08:54:02;36.15;;;17.23;;
25758;SDS011;13604;52.496;13.456;2022-11-20T08:56:27;40.17;;;19.13;;
25758;SDS011;13604;52.496;13.456;2022-11-20T08:58:53;37.80;;;17.88;;
25758;SDS011;13604;52.496;13.456;2022-11-20T09:01:18;35.30;;;17.92;;
25758;SDS011;13604;52.496;13.456;2022-11-20T09:03:45;37.30;;;17.73;;
25758;SDS011;13604;52.496;13.456;2022-11-20T09:06:10;36.53;;;17.73;;
25758;SDS011;13604;52.496;13.456;2022-11-20T09:08:36;33.75;;;16.60;;
25758;SDS011;13604;52.496;13.456;2022-11-20T09:11:01;33.53;;;17.27;;
25758;SDS011;13604;52.496;13.456;2022-11-20T09:13:27;34.53;;;17.23;;
25758;SDS011;13604;52.496;13.456;2022-11-20T09:15:57;35.17;;;16.77;;
25758;SDS011;13604;52.496;13.456;2022-11-20T09:18:30;31.77;;;16.55;;
25758;SDS011;13604;52.496;13.456;2022-11-20T09:21:01;43.72;;;16.80;;
25758;SDS011;13604;52.496;13.456;2022-11-20T09:23:30;32.30;;;16.58;;
25758;SDS011;13604;52.496;13.456;2022-11-20T09:25:58;35.65;;;16.88;;
25758;SDS011;13604;52.496;13.456;2022-11-20T09:28:26;38.25;;;17.70;;
25758;SDS011;13604;52.496;13.456;2022-11-20T09:30:52;33.03;;;16.27;;
25758;SDS011;13604;52.496;13.456;2022-11-20T09:33:17;34.35;;;16.95;;
25758;SDS011;13604;52.496;13.456;2022-11-20T09:35:43;35.42;;;16.77;;
25758;SDS011;13604;52.496;13.456;2022-11-20T09:38:08;33.42;;;16.27;;
25758;SDS011;13604;52.496;13.456;2022-11-20T09:40:36;33.72;;;17.20;;
25758;SDS011;13604;52.496;13.456;2022-11-20T09:43:22;33.08;;;16.88;;
25758;SDS011;13604;52.496;13.456;2022-11-20T09:49:11;29.92;;;16.48;;
25758;SDS011;13604;52.496;13.456;2022-11-20T09:52:00;34.47;;;17.17;;
25758;SDS011;13604;52.496;13.456;2022-11-20T09:54:36;31.02;;;15.90;;
25758;SDS011;13604;52.496;13.456;2022-11-20T09:57:14;30.75;;;16.30;;
25758;SDS011;13604;52.496;13.456;2022-11-20T09:59:48;37.67;;;17.98;;
25758;SDS011;13604;52.496;13.456;2022-11-20T10:04:53;32.13;;;16.75;;
25758;SDS011;13604;52.496;13.456;2022-11-20T10:07:29;34.28;;;15.30;;
25758;SDS011;13604;52.496;13.456;2022-11-20T10:10:02;32.85;;;16.33;;
25758;SDS011;13604;52.496;13.456;2022-11-20T10:12:39;31.02;;;15.30;;
25758;SDS011;13604;52.496;13.456;2022-11-20T10:15:19;30.85;;;15.05;;
25758;SDS011;13604;52.496;13.456;2022-11-20T10:18:03;31.13;;;16.38;;
25758;SDS011;13604;52.496;13.456;2022-11-20T10:20:52;29.65;;;15.07;;
25758;SDS011;13604;52.496;13.456;2022-11-20T10:31:35;31.23;;;16.10;;
25758;SDS011;13604;52.496;13.456;2022-11-20T10:34:07;31.80;;;15.20;;
25758;SDS011;13604;52.496;13.456;2022-11-20T10:36:47;29.42;;;16.08;;
25758;SDS011;13604;52.496;13.456;2022-11-20T10:39:32;30.42;;;16.38;;
25758;SDS011;13604;52.496;13.456;2022-11-20T10:44:28;35.47;;;17.55;;
25758;SDS011;13604;52.496;13.456;2022-11-20T10:47:15;36.33;;;17.02;;
25758;SDS011;13604;52.496;13.456;2022-11-20T10:49:43;36.25;;;16.98;;
25758;SDS011;13604;52.496;13.456;2022-11-20T10:57:46;33.55;;;16.25;;
25758;SDS011;13604;52.496;13.456;2022-11-20T11:00:20;30.35;;;16.13;;
25758;SDS011;13604;52.496;13.456;2022-11-20T11:02:49;33.28;;;17.60;;
25758;SDS011;13604;52.496;13.456;2022-11-20T11:08:10;31.15;;;15.50;;
25758;SDS011;13604;52.496;13.456;2022-11-20T11:13:28;32.33;;;15.45;;
25758;SDS011;13604;52.496;13.456;2022-11-20T11:15:55;29.00;;;15.18;;
25758;SDS011;13604;52.496;13.456;2022-11-20T11:18:25;27.30;;;14.07;;
25758;SDS011;13604;52.496;13.456;2022-11-20T11:20:52;30.05;;;14.38;;
25758;SDS011;13604;52.496;13.456;2022-11-20T11:23:26;31.55;;;14.07;;
25758;SDS011;13604;52.496;13.456;2022-11-20T11:25:57;32.75;;;14.55;;
25758;SDS011;13604;52.496;13.456;2022-11-20T11:28:24;29.85;;;14.48;;
25758;SDS011;13604;52.496;13.456;2022-11-20T11:30:51;29.65;;;15.00;;
25758;SDS011;13604;52.496;13.456;2022-11-20T11:33:21;28.77;;;14.75;;
25758;SDS011;13604;52.496;13.456;2022-11-20T11:35:49;28.58;;;13.93;;
25758;SDS011;13604;52.496;13.456;2022-11-20T11:41:06;26.40;;;14.15;;
25758;SDS011;13604;52.496;13.456;2022-11-20T11:43:35;27.05;;;14.38;;
25758;SDS011;13604;52.496;13.456;2022-11-20T11:51:21;28.13;;;14.07;;
25758;SDS011;13604;52.496;13.456;2022-11-20T11:53:48;27.17;;;14.30;;
25758;SDS011;13604;52.496;13.456;2022-11-20T11:56:13;27.00;;;13.88;;
25758;SDS011;13604;52.496;13.456;2022-11-20T12:04:02;31.90;;;15.02;;
25758;SDS011;13604;52.496;13.456;2022-11-20T12:06:33;27.83;;;15.02;;
25758;SDS011;13604;52.496;13.456;2022-11-20T12:09:05;33.47;;;14.15;;
25758;SDS011;13604;52.496;13.456;2022-11-20T12:11:37;32.90;;;14.33;;
25758;SDS011;13604;52.496;13.456;2022-11-20T12:14:14;30.33;;;15.10;;
25758;SDS011;13604;52.496;13.456;2022-11-20T12:16:44;33.15;;;14.73;;
25758;SDS011;13604;52.496;13.456;2022-11-20T12:19:11;29.52;;;15.13;;
25758;SDS011;13604;52.496;13.456;2022-11-20T12:21:45;29.05;;;14.75;;
25758;SDS011;13604;52.496;13.456;2022-11-20T12:30:22;28.77;;;15.05;;
25758;SDS011;13604;52.496;13.456;2022-11-20T12:47:42;23.65;;;12.38;;
25758;SDS011;13604;52.496;13.456;2022-11-20T13:01:40;23.58;;;11.88;;
25758;SDS011;13604;52.496;13.456;2022-11-20T13:04:21;21.98;;;10.90;;
25758;SDS011;13604;52.496;13.456;2022-11-20T13:06:49;24.02;;;11.10;;
25758;SDS011;13604;52.496;13.456;2022-11-20T13:09:16;18.73;;;10.05;;
25758;SDS011;13604;52.496;13.456;2022-11-20T13:17:51;19.67;;;10.07;;
25758;SDS011;13604;52.496;13.456;2022-11-20T13:20:21;16.40;;;9.23;;
25758;SDS011;13604;52.496;13.456;2022-11-20T13:22:50;17.65;;;8.80;;
25758;SDS011;13604;52.496;13.456;2022-11-20T13:25:22;14.27;;;7.78;;
25758;SDS011;13604;52.496;13.456;2022-11-20T13:27:49;16.05;;;7.88;;
25758;SDS011;13604;52.496;13.456;2022-11-20T13:30:16;12.88;;;7.45;;
25758;SDS011;13604;52.496;13.456;2022-11-20T13:32:47;18.08;;;7.68;;
25758;SDS011;13604;52.496;13.456;2022-11-20T13:35:23;12.68;;;7.55;;
25758;SDS011;13604;52.496;13.456;2022-11-20T13:37:58;15.38;;;8.02;;
25758;SDS011;13604;52.496;13.456;2022-11-20T13:40:25;16.17;;;9.02;;
25758;SDS011;13604;52.496;13.456;2022-11-20T13:42:55;16.75;;;8.10;;
25758;SDS011;13604;52.496;13.456;2022-11-20T13:45:27;13.23;;;7.47;;
25758;SDS011;13604;52.496;13.456;2022-11-20T13:47:54;16.25;;;8.45;;
25758;SDS011;13604;52.496;13.456;2022-11-20T13:50:37;15.15;;;8.15;;
25758;SDS011;13604;52.496;13.456;2022-11-20T13:53:21;13.43;;;7.78;;
25758;SDS011;13604;52.496;13.456;2022-11-20T13:58:52;14.25;;;8.27;;
25758;SDS011;13604;52.496;13.456;2022-11-20T14:01:46;16.23;;;8.57;;
25758;SDS011;13604;52.496;13.456;2022-11-20T14:04:15;16.23;;;8.30;;
25758;SDS011;13604;52.496;13.456;2022-11-20T14:06:48;15.07;;;8.05;;
25758;SDS011;13604;52.496;13.456;2022-11-20T14:09:27;15.63;;;8.95;;
25758;SDS011;13604;52.496;13.456;2022-11-20T14:11:56;21.42;;;9.50;;
25758;SDS011;13604;52.496;13.456;2022-11-20T14:14:23;16.92;;;9.05;;
25758;SDS011;13604;52.496;13.456;2022-11-20T14:16:50;16.10;;;8.55;;
25758;SDS011;13604;52.496;13.456;2022-11-20T14:21:48;17.35;;;9.40;;
25758;SDS011;13604;52.496;13.456;2022-11-20T14:24:20;19.27;;;9.45;;
25758;SDS011;13604;52.496;13.456;2022-11-20T14:26:47;18.35;;;9.60;;
25758;SDS011;13604;52.496;13.456;2022-11-20T14:29:14;17.80;;;9.50;;
25758;SDS011;13604;52.496;13.456;2022-11-20T14:31:42;21.63;;;11.13;;
25758;SDS011;13604;52.496;13.456;2022-11-20T14:34:17;17.30;;;9.90;;
25758;SDS011;13604;52.496;13.456;2022-11-20T14:36:45;21.67;;;10.52;;
25758;SDS011;13604;52.496;13.456;2022-11-20T14:39:11;26.88;;;11.07;;
25758;SDS011;13604;52.496;13.456;2022-11-20T14:44:15;25.63;;;13.52;;
25758;SDS011;13604;52.496;13.456;2022-11-20T14:46:40;22.50;;;11.73;;
25758;SDS011;13604;52.496;13.456;2022-11-20T14:49:07;20.38;;;11.68;;
25758;SDS011;13604;52.496;13.456;2022-11-20T14:51:36;21.75;;;11.60;;
25758;SDS011;13604;52.496;13.456;2022-11-20T14:54:24;21.05;;;11.70;;
25758;SDS011;13604;52.496;13.456;2022-11-20T14:56:54;18.85;;;10.00;;
25758;SDS011;13604;52.496;13.456;2022-11-20T14:59:30;23.25;;;12.95;;
25758;SDS011;13604;52.496;13.456;2022-11-20T15:01:58;20.67;;;11.02;;
25758;SDS011;13604;52.496;13.456;2022-11-20T15:04:25;21.13;;;11.52;;
25758;SDS011;13604;52.496;13.456;2022-11-20T15:06:52;23.05;;;11.50;;
25758;SDS011;13604;52.496;13.456;2022-11-20T15:09:20;18.13;;;9.93;;
25758;SDS011;13604;52.496;13.456;2022-11-20T15:11:53;19.67;;;10.20;;
25758;SDS011;13604;52.496;13.456;2022-11-20T15:14:20;21.08;;;10.98;;
25758;SDS011;13604;52.496;13.456;2022-11-20T15:16:46;21.65;;;10.95;;
25758;SDS011;13604;52.496;13.456;2022-11-20T15:19:21;20.60;;;10.55;;
25758;SDS011;13604;52.496;13.456;2022-11-20T15:21:48;25.42;;;11.48;;
25758;SDS011;13604;52.496;13.456;2022-11-20T15:24:14;17.95;;;10.18;;
25758;SDS011;13604;52.496;13.456;2022-11-20T15:26:39;20.42;;;10.82;;
25758;SDS011;13604;52.496;13.456;2022-11-20T15:29:07;21.98;;;10.43;;
25758;SDS011;13604;52.496;13.456;2022-11-20T15:31:34;23.33;;;11.55;;
25758;SDS011;13604;52.496;13.456;2022-11-20T15:33:59;21.25;;;10.45;;
25758;SDS011;13604;52.496;13.456;2022-11-20T15:36:25;20.27;;;10.52;;
25758;SDS011;13604;52.496;13.456;2022-11-20T15:38:50;24.00;;;11.00;;
25758;SDS011;13604;52.496;13.456;2022-11-20T15:41:15;22.00;;;11.40;;
25758;SDS011;13604;52.496;13.456;2022-11-20T15:43:41;22.70;;;10.77;;
25758;SDS011;13604;52.496;13.456;2022-11-20T15:46:09;21.15;;;11.18;;
25758;SDS011;13604;52.496;13.456;2022-11-20T15:48:38;22.98;;;12.23;;
25758;SDS011;13604;52.496;13.456;2022-11-20T15:53:34;24.50;;;13.15;;